Fram — LADA7 — position and weather

sailwx.info

Track history (hours):
 
Tides and Currents Weather Stations Pressure Air Temp Water Temp Dewpoint Dewpoint Depression Visibility Wind Speed Wind Dir Waves Ship Positions

Fram

Last reported at 2019-May-19 00:43 UTC. Time now 2019-May-20 16:32 UTC.
Position N 44°25' W 063°06'.

Length 114 m; draft 5.1 m.

Type: Passenger vessel. MMSI: 258932000.

Date/timePositionNaut miles runAvg speedWind from/ knotsBaromVisibWave heightAir tempDewpointWater temp
2019-May-19 00:43N 44°25' W 063°06'3 7.9
2019-May-19 00:18N 44°24' W 063°11'3 8.0
2019-May-18 23:52N 44°25' W 063°15'3 7.7
2019-May-18 23:30N 44°25' W 063°19'4 7.7
2019-May-18 23:00N 44°26' W 063°24'4 7.7
2019-May-18 22:30N 44°27' W 063°29'4 8.6
2019-May-18 22:00N 44°32' W 063°31'510.3
2019-May-18 21:30N 44°37' W 063°33'2 3.8
2019-May-18 21:00N 44°38' W 063°34'  
2019-May-16 12:02N 44°38' W 063°34'0 0.0
2019-May-16 11:56N 44°38' W 063°34'0 0.0
2019-May-16 11:26N 44°38' W 063°34'0 0.0
2019-May-16 10:55N 44°38' W 063°34'0 0.0
2019-May-16 10:26N 44°38' W 063°34'0 0.0
2019-May-16 09:50N 44°38' W 063°34'0 0.0
2019-May-16 08:50N 44°38' W 063°34'0 0.0
2019-May-16 08:14N 44°38' W 063°34'0 0.0
2019-May-16 07:56N 44°38' W 063°34'0 0.0
2019-May-16 07:26N 44°38' W 063°34'0 0.0
2019-May-16 06:50N 44°38' W 063°34'0 0.0
2019-May-16 06:26N 44°38' W 063°34'0 0.0
2019-May-16 05:56N 44°38' W 063°34'0 0.0
2019-May-16 05:26N 44°38' W 063°34'0 0.0
2019-May-16 04:56N 44°38' W 063°34'0 0.0
2019-May-16 04:26N 44°38' W 063°34'0 0.0
2019-May-16 03:59N 44°38' W 063°34'0 0.0
2019-May-16 03:29N 44°38' W 063°34'0 0.0
2019-May-16 02:59N 44°38' W 063°34'0 0.0
2019-May-16 02:29N 44°38' W 063°34'0 0.0
2019-May-16 01:53N 44°38' W 063°34'0 0.0
2019-May-16 01:29N 44°38' W 063°34'0 0.0
2019-May-16 00:59N 44°38' W 063°34'0 0.0
2019-May-16 00:29N 44°38' W 063°34'0 0.0
2019-May-15 23:59N 44°38' W 063°34'0 0.0
2019-May-15 23:29N 44°38' W 063°34'0 0.4
2019-May-15 23:01N 44°38' W 063°34'4 7.2
2019-May-15 22:30N 44°35' W 063°32'611.3
2019-May-15 22:01N 44°30' W 063°29'1 2.6
2019-May-15 21:30N 44°30' W 063°27'0 0.5
2019-May-15 21:00N 44°30' W 063°28'0 0.3
2019-May-15 20:30N 44°31' W 063°28'0 0.1
2019-May-15 20:00N 44°31' W 063°28'0 0.7
2019-May-15 19:30N 44°30' W 063°28'0 0.7
2019-May-15 19:00N 44°30' W 063°28'0 0.2
2019-May-15 18:30N 44°31' W 063°28'0 0.3
2019-May-15 18:00N 44°31' W 063°28'0 0.6
2019-May-15 17:30N 44°31' W 063°28'0 0.3
2019-May-15 17:00N 44°31' W 063°28'0 0.3
2019-May-15 16:30N 44°30' W 063°28'0 0.3
2019-May-15 16:00N 44°30' W 063°28'0 0.6
2019-May-15 15:30N 44°31' W 063°28'0 0.8
2019-May-15 15:00N 44°30' W 063°28'0 0.8
2019-May-15 14:31N 44°31' W 063°28'0 0.6
2019-May-15 14:01N 44°30' W 063°28'0 0.6
2019-May-15 13:31N 44°31' W 063°28'0 0.9
2019-May-15 13:01N 44°30' W 063°28'0 0.2
2019-May-15 12:31N 44°30' W 063°28'1 1.1
2019-May-15 12:00N 44°31' W 063°28'2 4.0
2019-May-15 11:30N 44°29' W 063°28'  
2019-May-13 05:42N 40°24' W 073°32'210.4
2019-May-13 05:30N 40°24' W 073°35'610.2
2019-May-13 04:54N 40°26' W 073°43'15 9.9
2019-May-13 03:23N 40°31' W 074°00'614.3
2019-May-13 02:59N 40°37' W 074°03'712.4
2019-May-13 02:25N 40°44' W 074°01'2 5.3
2019-May-13 01:57N 40°46' W 073°60'17580.4
2019-May-12 23:47N 37°52' W 074°15'17515.1
2019-May-12 12:14N 40°46' W 074°00'2 6.3
2019-May-12 11:58N 40°45' W 074°01'612.1
2019-May-12 11:28N 40°39' W 074°03'1411.0
2019-May-12 10:14N 40°28' W 073°52'210.6
2019-May-12 10:00N 40°27' W 073°49'4 7.4
2019-May-12 09:30N 40°27' W 073°44'4 8.4
2019-May-12 09:00N 40°27' W 073°39'  
2019-May-09 21:10N 44°25' W 063°28'213.0
2019-May-09 21:01N 44°27' W 063°29'612.5
2019-May-09 20:30N 44°33' W 063°32'611.1
2019-May-09 20:00N 44°38' W 063°34'0 0.2
2019-May-09 19:29N 44°38' W 063°34'0 0.0
2019-May-09 18:59N 44°38' W 063°34'0 0.0
2019-May-09 18:29N 44°38' W 063°34'0 0.0
2019-May-09 17:59N 44°38' W 063°34'0 0.0
2019-May-09 17:29N 44°38' W 063°34'0 0.0
2019-May-09 16:59N 44°38' W 063°34'0 0.0
2019-May-09 16:29N 44°38' W 063°34'0 0.0
2019-May-09 15:59N 44°38' W 063°34'0 0.0
2019-May-09 15:29N 44°38' W 063°34'0 0.0
2019-May-09 14:59N 44°38' W 063°34'0 0.0
2019-May-09 14:29N 44°38' W 063°34'0 0.0
2019-May-09 13:59N 44°38' W 063°34'0 0.0
2019-May-09 13:29N 44°38' W 063°34'0 0.0
2019-May-09 12:59N 44°38' W 063°34'0 0.0
2019-May-09 12:29N 44°38' W 063°34'0 0.0
2019-May-09 12:00N 44°38' W 063°34'1 2.6
2019-May-09 11:30N 44°37' W 063°33'611.7
2019-May-09 11:00N 44°31' W 063°31'5 9.2
2019-May-09 10:29N 44°28' W 063°27'7 9.9
2019-May-09 09:48N 44°28' W 063°17'710.1
2019-May-09 09:05N 44°29' W 063°07'  
Track history (hours):
 
Tides and Currents Weather Stations Pressure Air Temp Water Temp Dewpoint Dewpoint Depression Visibility Wind Speed Wind Dir Waves Ship Positions

Fram

Last reported at 2019-May-19 00:43 UTC. Time now 2019-May-20 16:32 UTC.
Position N 44°25' W 063°06'.

Length 114 m; draft 5.1 m.

Type: Passenger vessel. MMSI: 258932000.

Date/timePositionNaut miles runAvg speedWind from/ knotsBaromVisibWave heightAir tempDewpointWater temp
2019-May-19 00:43N 44°25' W 063°06'3 7.9
2019-May-19 00:18N 44°24' W 063°11'3 8.0
2019-May-18 23:52N 44°25' W 063°15'3 7.7
2019-May-18 23:30N 44°25' W 063°19'4 7.7
2019-May-18 23:00N 44°26' W 063°24'4 7.7
2019-May-18 22:30N 44°27' W 063°29'4 8.6
2019-May-18 22:00N 44°32' W 063°31'510.3
2019-May-18 21:30N 44°37' W 063°33'2 3.8
2019-May-18 21:00N 44°38' W 063°34'  
2019-May-16 12:02N 44°38' W 063°34'0 0.0
2019-May-16 11:56N 44°38' W 063°34'0 0.0
2019-May-16 11:26N 44°38' W 063°34'0 0.0
2019-May-16 10:55N 44°38' W 063°34'0 0.0
2019-May-16 10:26N 44°38' W 063°34'0 0.0
2019-May-16 09:50N 44°38' W 063°34'0 0.0
2019-May-16 08:50N 44°38' W 063°34'0 0.0
2019-May-16 08:14N 44°38' W 063°34'0 0.0
2019-May-16 07:56N 44°38' W 063°34'0 0.0
2019-May-16 07:26N 44°38' W 063°34'0 0.0
2019-May-16 06:50N 44°38' W 063°34'0 0.0
2019-May-16 06:26N 44°38' W 063°34'0 0.0
2019-May-16 05:56N 44°38' W 063°34'0 0.0
2019-May-16 05:26N 44°38' W 063°34'0 0.0
2019-May-16 04:56N 44°38' W 063°34'0 0.0
2019-May-16 04:26N 44°38' W 063°34'0 0.0
2019-May-16 03:59N 44°38' W 063°34'0 0.0
2019-May-16 03:29N 44°38' W 063°34'0 0.0
2019-May-16 02:59N 44°38' W 063°34'0 0.0
2019-May-16 02:29N 44°38' W 063°34'0 0.0
2019-May-16 01:53N 44°38' W 063°34'0 0.0
2019-May-16 01:29N 44°38' W 063°34'0 0.0
2019-May-16 00:59N 44°38' W 063°34'0 0.0
2019-May-16 00:29N 44°38' W 063°34'0 0.0
2019-May-15 23:59N 44°38' W 063°34'0 0.0
2019-May-15 23:29N 44°38' W 063°34'0 0.4
2019-May-15 23:01N 44°38' W 063°34'4 7.2
2019-May-15 22:30N 44°35' W 063°32'611.3
2019-May-15 22:01N 44°30' W 063°29'1 2.6
2019-May-15 21:30N 44°30' W 063°27'0 0.5
2019-May-15 21:00N 44°30' W 063°28'0 0.3
2019-May-15 20:30N 44°31' W 063°28'0 0.1
2019-May-15 20:00N 44°31' W 063°28'0 0.7
2019-May-15 19:30N 44°30' W 063°28'0 0.7
2019-May-15 19:00N 44°30' W 063°28'0 0.2
2019-May-15 18:30N 44°31' W 063°28'0 0.3
2019-May-15 18:00N 44°31' W 063°28'0 0.6
2019-May-15 17:30N 44°31' W 063°28'0 0.3
2019-May-15 17:00N 44°31' W 063°28'0 0.3
2019-May-15 16:30N 44°30' W 063°28'0 0.3
2019-May-15 16:00N 44°30' W 063°28'0 0.6
2019-May-15 15:30N 44°31' W 063°28'0 0.8
2019-May-15 15:00N 44°30' W 063°28'0 0.8
2019-May-15 14:31N 44°31' W 063°28'0 0.6
2019-May-15 14:01N 44°30' W 063°28'0 0.6
2019-May-15 13:31N 44°31' W 063°28'0 0.9
2019-May-15 13:01N 44°30' W 063°28'0 0.2
2019-May-15 12:31N 44°30' W 063°28'1 1.1
2019-May-15 12:00N 44°31' W 063°28'2 4.0
2019-May-15 11:30N 44°29' W 063°28'  
2019-May-13 05:42N 40°24' W 073°32'210.4
2019-May-13 05:30N 40°24' W 073°35'610.2
2019-May-13 04:54N 40°26' W 073°43'15 9.9
2019-May-13 03:23N 40°31' W 074°00'614.3
2019-May-13 02:59N 40°37' W 074°03'712.4
2019-May-13 02:25N 40°44' W 074°01'2 5.3
2019-May-13 01:57N 40°46' W 073°60'17580.4
2019-May-12 23:47N 37°52' W 074°15'17515.1
2019-May-12 12:14N 40°46' W 074°00'2 6.3
2019-May-12 11:58N 40°45' W 074°01'612.1
2019-May-12 11:28N 40°39' W 074°03'1411.0
2019-May-12 10:14N 40°28' W 073°52'210.6
2019-May-12 10:00N 40°27' W 073°49'4 7.4
2019-May-12 09:30N 40°27' W 073°44'4 8.4
2019-May-12 09:00N 40°27' W 073°39'  
2019-May-09 21:10N 44°25' W 063°28'213.0
2019-May-09 21:01N 44°27' W 063°29'612.5
2019-May-09 20:30N 44°33' W 063°32'611.1
2019-May-09 20:00N 44°38' W 063°34'0 0.2
2019-May-09 19:29N 44°38' W 063°34'0 0.0
2019-May-09 18:59N 44°38' W 063°34'0 0.0
2019-May-09 18:29N 44°38' W 063°34'0 0.0
2019-May-09 17:59N 44°38' W 063°34'0 0.0
2019-May-09 17:29N 44°38' W 063°34'0 0.0
2019-May-09 16:59N 44°38' W 063°34'0 0.0
2019-May-09 16:29N 44°38' W 063°34'0 0.0
2019-May-09 15:59N 44°38' W 063°34'0 0.0
2019-May-09 15:29N 44°38' W 063°34'0 0.0
2019-May-09 14:59N 44°38' W 063°34'0 0.0
2019-May-09 14:29N 44°38' W 063°34'0 0.0
2019-May-09 13:59N 44°38' W 063°34'0 0.0
2019-May-09 13:29N 44°38' W 063°34'0 0.0
2019-May-09 12:59N 44°38' W 063°34'0 0.0
2019-May-09 12:29N 44°38' W 063°34'0 0.0
2019-May-09 12:00N 44°38' W 063°34'1 2.6
2019-May-09 11:30N 44°37' W 063°33'611.7
2019-May-09 11:00N 44°31' W 063°31'5 9.2
2019-May-09 10:29N 44°28' W 063°27'7 9.9
2019-May-09 09:48N 44°28' W 063°17'710.1
2019-May-09 09:05N 44°29' W 063°07'  

Dump ship's entire track history